Time;durP1;ratioP1;P1;durP2;ratioP2;P2;SDS_P1;SDS_P2;PMS_P1;PMS_P2;Temp;Humidity;BMP_temperature;BMP_pressure;BME280_temperature;BME280_humidity;BME280_pressure;Samples;Min_cycle;Max_cycle;Signal;HPM_P1;HPM_P2
2020/12/06 00:01:52;;;;;;;25.00;13.13;;;1.30;99.90;;;;;;5100969;28;20023;-68
2020/12/06 00:04:20;;;;;;;24.05;12.82;;;1.20;99.90;;;;;;5100926;28;20312;-69
2020/12/06 00:06:48;;;;;;;23.63;11.60;;;1.20;99.90;;;;;;5118693;28;20365;-69
2020/12/06 00:09:17;;;;;;;26.73;11.90;;;1.10;99.90;;;;;;5118773;28;20404;-68
2020/12/06 00:11:47;;;;;;;24.90;12.07;;;1.10;99.90;;;;;;5118842;28;20027;-69
2020/12/06 00:14:15;;;;;;;27.98;12.57;;;1.00;99.90;;;;;;5100728;28;20100;-69
2020/12/06 00:16:43;;;;;;;25.40;11.35;;;0.90;99.90;;;;;;5118812;28;20387;-69
2020/12/06 00:19:11;;;;;;;24.83;11.90;;;0.90;99.90;;;;;;5118715;28;20058;-69
2020/12/06 00:21:38;;;;;;;27.50;12.93;;;0.80;99.90;;;;;;5118618;28;20020;-69
2020/12/06 00:24:06;;;;;;;23.73;11.23;;;0.80;99.90;;;;;;5119179;28;20020;-69
2020/12/06 00:26:33;;;;;;;24.38;12.13;;;0.80;99.90;;;;;;5119108;28;20016;-69
2020/12/06 00:29:01;;;;;;;24.67;11.82;;;0.80;99.90;;;;;;5119157;28;20024;-69
2020/12/06 00:31:29;;;;;;;22.40;11.77;;;0.80;99.90;;;;;;5118460;28;20047;-69
2020/12/06 00:33:57;;;;;;;25.48;12.63;;;0.80;99.90;;;;;;5119027;28;20018;-69
2020/12/06 00:36:25;;;;;;;26.83;12.32;;;0.80;99.90;;;;;;5100192;28;20053;-69
2020/12/06 00:38:53;;;;;;;28.42;13.20;;;0.80;99.90;;;;;;5118755;28;20023;-69
2020/12/06 00:41:23;;;;;;;34.38;15.52;;;0.90;99.90;;;;;;5118481;28;20068;-69
2020/12/06 00:43:51;;;;;;;32.42;13.35;;;0.90;99.90;;;;;;5118209;28;20016;-69
2020/12/06 00:46:22;;;;;;;29.58;12.90;;;1.00;99.90;;;;;;5118698;28;20349;-69
2020/12/06 00:48:50;;;;;;;24.80;12.55;;;1.10;99.90;;;;;;5100114;28;20020;-69
2020/12/06 00:51:19;;;;;;;25.63;12.60;;;1.10;99.90;;;;;;5118190;28;20039;-69
2020/12/06 00:53:47;;;;;;;30.83;14.80;;;1.10;99.90;;;;;;5118353;28;20091;-69
2020/12/06 00:56:18;;;;;;;28.35;13.05;;;1.20;99.90;;;;;;5117977;28;20051;-69
2020/12/06 00:58:47;;;;;;;28.60;13.32;;;1.20;99.90;;;;;;5099978;28;20019;-69
2020/12/06 01:01:16;;;;;;;28.20;12.15;;;1.20;99.90;;;;;;5099770;28;20116;-69
2020/12/06 01:03:44;;;;;;;24.33;11.05;;;1.30;99.90;;;;;;5118395;28;20069;-69
2020/12/06 01:06:20;;;;;;;21.48;10.80;;;1.30;99.90;;;;;;5117644;28;20020;-69
2020/12/06 01:08:47;;;;;;;25.45;11.73;;;1.30;99.90;;;;;;5095949;28;20043;-69
2020/12/06 01:11:15;;;;;;;25.17;12.10;;;1.30;99.90;;;;;;5097618;28;20032;-69
2020/12/06 01:13:43;;;;;;;23.85;11.07;;;1.30;99.90;;;;;;5096240;28;20324;-69
2020/12/06 01:16:14;;;;;;;24.13;11.55;;;1.30;99.90;;;;;;5097785;28;20016;-69
2020/12/06 01:18:42;;;;;;;26.15;11.35;;;1.30;99.90;;;;;;5096239;28;20329;-69
2020/12/06 01:21:12;;;;;;;22.80;11.25;;;1.30;99.90;;;;;;5097121;28;20028;-69
2020/12/06 01:23:40;;;;;;;25.92;12.02;;;1.30;99.90;;;;;;5097187;28;20081;-69
2020/12/06 01:26:15;;;;;;;31.42;12.50;;;1.30;99.90;;;;;;5097660;28;20020;-69
2020/12/06 01:28:43;;;;;;;24.63;11.07;;;1.30;99.90;;;;;;5097619;28;20028;-69
2020/12/06 01:31:11;;;;;;;24.15;11.88;;;1.40;99.90;;;;;;5096014;28;20027;-69
2020/12/06 01:33:40;;;;;;;25.25;13.75;;;1.40;99.90;;;;;;5096038;28;20077;-69
2020/12/06 01:36:07;;;;;;;25.00;13.05;;;1.50;99.90;;;;;;5098013;28;20305;-69
2020/12/06 01:38:36;;;;;;;29.45;15.52;;;1.50;99.90;;;;;;5097486;28;20057;-69
2020/12/06 01:41:03;;;;;;;27.00;12.80;;;1.50;99.90;;;;;;5097406;28;20027;-69
2020/12/06 01:43:31;;;;;;;23.67;11.73;;;1.60;99.90;;;;;;5097583;28;20439;-69
2020/12/06 01:45:59;;;;;;;21.90;12.00;;;1.60;99.90;;;;;;5097145;28;20032;-69
2020/12/06 01:48:27;;;;;;;22.85;11.45;;;1.60;99.90;;;;;;5097121;28;20321;-69
2020/12/06 01:50:57;;;;;;;23.55;11.02;;;1.60;99.90;;;;;;5095550;28;20328;-69
2020/12/06 01:53:24;;;;;;;23.67;11.32;;;1.60;99.90;;;;;;5096738;28;20095;-69
2020/12/06 01:55:53;;;;;;;22.52;10.70;;;1.60;99.90;;;;;;5095575;28;20027;-69
2020/12/06 01:58:26;;;;;;;26.00;12.90;;;1.60;99.90;;;;;;5095636;28;20056;-69
2020/12/06 02:00:53;;;;;;;24.25;11.52;;;1.60;99.90;;;;;;5096655;28;20027;-69
2020/12/06 02:03:21;;;;;;;25.10;11.05;;;1.70;99.90;;;;;;5096608;28;20101;-69
2020/12/06 02:05:49;;;;;;;22.45;11.68;;;1.70;99.90;;;;;;5095491;28;20373;-69
2020/12/06 02:08:16;;;;;;;25.50;12.27;;;1.70;99.90;;;;;;5109967;28;20049;-69
2020/12/06 02:10:44;;;;;;;20.90;10.32;;;1.70;99.90;;;;;;5116824;28;20069;-69
2020/12/06 02:13:11;;;;;;;21.20;11.20;;;1.70;99.90;;;;;;5116915;28;20019;-69
2020/12/06 02:15:39;;;;;;;26.70;11.98;;;1.70;99.90;;;;;;5117317;28;20020;-69
2020/12/06 02:18:07;;;;;;;25.23;11.80;;;1.70;99.90;;;;;;5117023;28;20016;-69
2020/12/06 02:20:35;;;;;;;22.38;10.85;;;1.70;99.90;;;;;;5116625;28;20020;-69
2020/12/06 02:23:04;;;;;;;21.63;11.07;;;1.70;99.90;;;;;;5120604;28;20383;-69
2020/12/06 02:25:42;;;;;;;22.17;11.13;;;1.80;99.90;;;;;;5120900;28;20019;-69
2020/12/06 02:28:10;;;;;;;24.38;10.70;;;1.80;99.90;;;;;;5102894;28;20518;-69
2020/12/06 02:30:37;;;;;;;22.15;10.93;;;1.80;99.90;;;;;;5120751;28;20473;-69
2020/12/06 02:33:05;;;;;;;25.90;12.30;;;1.80;99.90;;;;;;5120816;28;20019;-69
2020/12/06 02:35:33;;;;;;;22.40;11.07;;;1.80;99.90;;;;;;5121578;28;20073;-69
2020/12/06 02:38:00;;;;;;;20.90;11.20;;;1.80;99.90;;;;;;5121369;28;20404;-69
2020/12/06 02:40:28;;;;;;;26.35;12.32;;;1.80;99.90;;;;;;5120552;28;20030;-69
2020/12/06 02:42:56;;;;;;;22.15;11.55;;;1.80;99.90;;;;;;5121159;28;20027;-69
2020/12/06 02:45:25;;;;;;;22.90;11.52;;;1.80;99.90;;;;;;5121062;28;20026;-69
2020/12/06 02:47:52;;;;;;;23.13;11.35;;;1.90;99.90;;;;;;5120663;28;20072;-69
2020/12/06 02:50:21;;;;;;;21.90;10.98;;;1.90;99.90;;;;;;5120601;28;20031;-69
2020/12/06 02:52:57;;;;;;;26.67;11.65;;;1.90;99.90;;;;;;5120934;28;20027;-69
2020/12/06 02:55:27;;;;;;;20.63;11.30;;;1.90;99.90;;;;;;5120649;28;20026;-69
2020/12/06 02:57:54;;;;;;;26.05;11.77;;;2.00;99.90;;;;;;5120990;28;20407;-69
2020/12/06 03:00:23;;;;;;;26.92;11.70;;;1.90;99.90;;;;;;5120161;28;20082;-69
2020/12/06 03:02:50;;;;;;;25.88;13.07;;;1.90;99.90;;;;;;5120208;28;20019;-69
2020/12/06 03:05:18;;;;;;;24.50;11.98;;;2.00;99.90;;;;;;5120722;28;20051;-69
2020/12/06 03:07:45;;;;;;;24.40;12.77;;;2.00;99.90;;;;;;5119872;28;20043;-69
2020/12/06 03:10:13;;;;;;;22.13;12.25;;;2.00;99.90;;;;;;5120500;28;20358;-68
2020/12/06 03:12:41;;;;;;;26.13;12.25;;;2.00;99.90;;;;;;5120020;28;20070;-69
2020/12/06 03:15:08;;;;;;;25.58;13.13;;;2.00;99.90;;;;;;5085040;28;20020;-69
2020/12/06 03:17:36;;;;;;;28.60;13.52;;;2.00;99.90;;;;;;5101823;28;20028;-69
2020/12/06 03:20:04;;;;;;;28.92;12.85;;;2.10;99.90;;;;;;5101914;28;20087;-68
2020/12/06 03:22:32;;;;;;;23.90;12.88;;;2.00;99.90;;;;;;5119920;28;20038;-69
2020/12/06 03:25:03;;;;;;;25.20;12.45;;;2.10;99.90;;;;;;5119775;28;20028;-69
2020/12/06 03:27:30;;;;;;;25.05;12.38;;;2.10;99.90;;;;;;5120289;28;20120;-69
2020/12/06 03:29:58;;;;;;;25.60;13.02;;;2.10;99.90;;;;;;5101516;28;20118;-69
2020/12/06 03:32:26;;;;;;;33.17;13.10;;;2.10;99.90;;;;;;5119252;28;20076;-68
2020/12/06 03:34:53;;;;;;;23.88;12.70;;;2.10;99.90;;;;;;5120105;28;20047;-69
2020/12/06 03:37:21;;;;;;;24.63;12.35;;;2.10;99.90;;;;;;5119632;28;20047;-69
2020/12/06 03:39:49;;;;;;;26.98;12.52;;;2.10;99.90;;;;;;5101387;28;20024;-69
2020/12/06 03:42:17;;;;;;;28.77;13.20;;;2.10;99.90;;;;;;5120203;28;20030;-69
2020/12/06 03:44:45;;;;;;;26.58;12.88;;;2.10;99.90;;;;;;5119954;28;20312;-69
2020/12/06 03:47:13;;;;;;;26.38;13.05;;;2.20;99.90;;;;;;5119959;28;20016;-69
2020/12/06 03:49:41;;;;;;;29.27;13.60;;;2.10;99.90;;;;;;5101098;28;20031;-69
2020/12/06 03:52:08;;;;;;;24.00;12.85;;;2.20;99.90;;;;;;5119947;28;20023;-69
2020/12/06 03:54:36;;;;;;;25.75;13.02;;;2.20;99.90;;;;;;5119509;28;20023;-69
2020/12/06 03:57:04;;;;;;;29.20;13.73;;;2.20;99.90;;;;;;5119115;28;20026;-69
2020/12/06 03:59:31;;;;;;;28.33;12.75;;;2.20;99.90;;;;;;5119127;28;20073;-69
2020/12/06 04:01:59;;;;;;;25.48;13.00;;;2.20;99.90;;;;;;5119229;28;20019;-69
2020/12/06 04:04:26;;;;;;;30.23;14.43;;;2.30;99.90;;;;;;5119587;28;20069;-69
2020/12/06 04:06:55;;;;;;;30.88;14.13;;;2.30;99.90;;;;;;5119162;28;20094;-69
2020/12/06 04:09:23;;;;;;;31.63;14.48;;;2.30;99.90;;;;;;5118836;28;20027;-69
2020/12/06 04:11:51;;;;;;;31.88;14.35;;;2.30;99.90;;;;;;5119013;28;20024;-68
2020/12/06 04:14:19;;;;;;;26.23;13.50;;;2.40;99.90;;;;;;5118833;28;20020;-68
2020/12/06 04:16:47;;;;;;;29.45;15.00;;;2.40;99.90;;;;;;5119398;28;20396;-68
2020/12/06 04:19:14;;;;;;;27.95;15.20;;;2.40;99.90;;;;;;5119232;28;20412;-69
2020/12/06 04:21:42;;;;;;;26.83;13.82;;;2.40;99.90;;;;;;5118905;28;20020;-68
2020/12/06 04:24:12;;;;;;;27.80;14.13;;;2.40;99.90;;;;;;5118546;28;20296;-68
2020/12/06 04:26:40;;;;;;;30.55;13.40;;;2.40;99.90;;;;;;5118833;28;20027;-69
2020/12/06 04:29:08;;;;;;;29.25;14.25;;;2.50;99.90;;;;;;5100319;28;20066;-68
2020/12/06 04:31:36;;;;;;;27.95;13.05;;;2.50;99.90;;;;;;5100352;28;20048;-69
2020/12/06 04:34:03;;;;;;;29.70;14.73;;;2.50;99.90;;;;;;5100281;28;20114;-69
2020/12/06 04:36:31;;;;;;;25.88;14.35;;;2.50;99.90;;;;;;5119042;28;20027;-69
2020/12/06 04:38:59;;;;;;;31.13;14.55;;;2.50;99.90;;;;;;5118324;28;20319;-69
2020/12/06 04:41:29;;;;;;;32.42;13.63;;;2.50;99.90;;;;;;5118337;28;20015;-68
2020/12/06 04:43:57;;;;;;;34.53;15.73;;;2.50;99.90;;;;;;5117960;28;20027;-69
2020/12/06 04:46:27;;;;;;;26.83;14.52;;;2.50;99.90;;;;;;5118327;28;20443;-69
2020/12/06 04:49:04;;;;;;;27.85;14.02;;;2.50;99.90;;;;;;5118128;28;20023;-68
2020/12/06 04:51:42;;;;;;;30.45;14.85;;;2.60;99.90;;;;;;5118525;28;20019;-69
2020/12/06 04:54:11;;;;;;;27.35;13.07;;;2.60;99.90;;;;;;5117930;28;20024;-69
2020/12/06 04:56:40;;;;;;;31.50;13.90;;;2.60;99.90;;;;;;5118639;28;20473;-68
2020/12/06 04:59:07;;;;;;;24.92;12.98;;;2.60;99.90;;;;;;5117933;28;20027;-69
2020/12/06 05:01:39;;;;;;;30.60;15.10;;;2.60;99.90;;;;;;5099851;28;20043;-69
2020/12/06 05:04:14;;;;;;;30.75;14.57;;;2.60;99.90;;;;;;5118094;28;20019;-69
2020/12/06 05:06:44;;;;;;;32.63;15.13;;;2.60;99.90;;;;;;5118442;28;20027;-68
2020/12/06 05:09:16;;;;;;;31.30;14.25;;;2.60;99.90;;;;;;5118223;28;20078;-69
2020/12/06 05:11:44;;;;;;;28.98;14.73;;;2.60;99.90;;;;;;5117707;28;20039;-68
2020/12/06 05:14:12;;;;;;;31.20;15.05;;;2.60;99.90;;;;;;5099544;28;20324;-69
2020/12/06 05:16:41;;;;;;;32.53;15.75;;;2.60;99.90;;;;;;5117767;28;20016;-69
2020/12/06 05:19:13;;;;;;;31.90;14.85;;;2.60;99.90;;;;;;5117582;28;20012;-68
2020/12/06 05:21:44;;;;;;;30.33;14.90;;;2.60;99.90;;;;;;5117817;28;20022;-68
2020/12/06 05:24:12;;;;;;;30.05;15.13;;;2.60;99.90;;;;;;5117432;28;20031;-69
2020/12/06 05:26:40;;;;;;;35.72;15.50;;;2.60;99.90;;;;;;5117676;28;20386;-68
2020/12/06 05:29:07;;;;;;;31.70;15.48;;;2.60;99.90;;;;;;5117342;28;20039;-68
2020/12/06 05:31:35;;;;;;;30.20;15.15;;;2.60;99.90;;;;;;5117648;28;20023;-68
2020/12/06 05:34:02;;;;;;;33.50;15.43;;;2.60;99.90;;;;;;5117329;28;20012;-68
2020/12/06 05:36:30;;;;;;;30.75;15.30;;;2.70;99.90;;;;;;5117275;28;20051;-69
2020/12/06 05:38:57;;;;;;;31.95;15.02;;;2.70;99.90;;;;;;5117595;28;20064;-68
2020/12/06 05:41:25;;;;;;;29.50;14.23;;;2.70;99.90;;;;;;5117842;28;20028;-68
2020/12/06 05:43:53;;;;;;;29.30;14.43;;;2.70;99.90;;;;;;5117224;28;20028;-68
2020/12/06 05:46:20;;;;;;;28.77;14.45;;;2.70;99.90;;;;;;5117764;28;20454;-69
2020/12/06 05:48:48;;;;;;;34.03;17.35;;;2.70;99.90;;;;;;5117698;28;20024;-68
2020/12/06 05:51:18;;;;;;;30.33;14.57;;;2.70;99.90;;;;;;5117321;28;20031;-69
2020/12/06 05:53:48;;;;;;;31.60;16.63;;;2.70;99.90;;;;;;5099057;28;20073;-68
2020/12/06 05:56:20;;;;;;;30.10;14.52;;;2.70;99.90;;;;;;5117407;28;20098;-68
2020/12/06 05:58:49;;;;;;;32.13;14.35;;;2.70;99.90;;;;;;5117043;28;20043;-68
2020/12/06 06:01:19;;;;;;;34.55;15.75;;;2.70;99.90;;;;;;5117112;28;20019;-68
2020/12/06 06:03:51;;;;;;;30.92;14.55;;;2.70;99.90;;;;;;5098866;28;20032;-68
2020/12/06 06:06:25;;;;;;;33.03;16.38;;;2.80;99.90;;;;;;5116962;28;20016;-68
2020/12/06 06:08:54;;;;;;;33.22;15.60;;;2.70;99.90;;;;;;5116848;28;20047;-68
2020/12/06 06:11:29;;;;;;;30.63;15.70;;;2.80;99.90;;;;;;5117286;28;20035;-68
2020/12/06 06:14:08;;;;;;;29.65;14.30;;;2.70;99.90;;;;;;5099015;28;20296;-69
2020/12/06 06:16:37;;;;;;;38.03;16.90;;;2.80;99.90;;;;;;5117489;28;20042;-68
2020/12/06 06:19:06;;;;;;;33.13;15.80;;;2.80;99.90;;;;;;5116700;28;20015;-68
2020/12/06 06:21:39;;;;;;;35.38;17.83;;;2.80;99.90;;;;;;5116882;28;20020;-68
2020/12/06 06:24:24;;;;;;;33.72;16.30;;;2.80;99.90;;;;;;5116781;28;20054;-68
2020/12/06 06:26:54;;;;;;;35.25;16.13;;;2.80;99.90;;;;;;5116816;28;20099;-68
2020/12/06 06:29:22;;;;;;;34.75;15.07;;;2.80;99.90;;;;;;5116603;28;20058;-68
2020/12/06 06:31:54;;;;;;;33.40;16.52;;;2.80;99.90;;;;;;5116768;28;20069;-68
2020/12/06 06:34:31;;;;;;;30.13;15.10;;;2.80;99.90;;;;;;5116650;28;20441;-68
2020/12/06 06:36:59;;;;;;;35.53;15.02;;;2.80;99.90;;;;;;5116600;28;20024;-68
2020/12/06 06:39:28;;;;;;;32.20;14.57;;;2.80;99.90;;;;;;5117197;28;20020;-68
2020/12/06 06:42:00;;;;;;;34.78;15.90;;;2.80;99.90;;;;;;5117356;28;20412;-68
2020/12/06 06:44:29;;;;;;;29.77;14.98;;;2.80;99.90;;;;;;5116548;28;20028;-68
2020/12/06 06:47:05;;;;;;;34.33;16.35;;;2.80;99.90;;;;;;5116911;28;20027;-68
2020/12/06 06:49:50;;;;;;;37.78;16.90;;;2.80;99.90;;;;;;5098612;28;20373;-68
2020/12/06 06:52:18;;;;;;;35.30;16.48;;;2.80;99.90;;;;;;5116587;28;20019;-67
2020/12/06 06:54:52;;;;;;;35.67;15.82;;;2.80;99.90;;;;;;5098374;28;20019;-68
2020/12/06 06:57:21;;;;;;;34.30;16.33;;;2.80;99.90;;;;;;5117013;28;20016;-67
2020/12/06 06:59:57;;;;;;;39.28;18.38;;;2.80;99.90;;;;;;5116444;28;20024;-67
2020/12/06 07:02:34;;;;;;;32.70;16.58;;;2.80;99.90;;;;;;5116918;28;20020;-67
2020/12/06 07:05:13;;;;;;;34.00;15.43;;;2.80;99.90;;;;;;5116892;28;20024;-68
2020/12/06 07:07:45;;;;;;;40.25;17.38;;;2.90;99.90;;;;;;5117713;28;20036;-67
2020/12/06 07:10:23;;;;;;;36.58;16.55;;;2.90;99.90;;;;;;5119998;28;20059;-68
2020/12/06 07:12:53;;;;;;;41.90;17.63;;;2.90;99.90;;;;;;5120017;28;20042;-68
2020/12/06 07:15:23;;;;;;;39.83;16.95;;;2.90;99.90;;;;;;5119977;28;20107;-68
2020/12/06 07:17:53;;;;;;;37.75;16.98;;;2.90;99.90;;;;;;5120615;28;20019;-70
2020/12/06 07:20:22;;;;;;;41.75;17.92;;;2.90;99.90;;;;;;5119851;28;20074;-70
2020/12/06 07:22:50;;;;;;;36.83;17.15;;;2.90;99.90;;;;;;5120006;28;20412;-70
2020/12/06 07:25:19;;;;;;;44.70;17.60;;;2.90;99.90;;;;;;5119768;28;20028;-68
2020/12/06 07:27:48;;;;;;;43.92;17.40;;;2.90;99.90;;;;;;5119704;28;20102;-70
2020/12/06 07:30:17;;;;;;;38.97;16.13;;;2.90;99.90;;;;;;5119626;28;20084;-70
2020/12/06 07:32:45;;;;;;;42.75;18.52;;;2.90;99.90;;;;;;5120345;28;20331;-70
2020/12/06 07:35:15;;;;;;;40.90;18.30;;;2.90;99.90;;;;;;5101481;28;20059;-70
2020/12/06 07:37:45;;;;;;;36.13;17.52;;;2.90;99.90;;;;;;5119499;28;20051;-69
2020/12/06 07:40:14;;;;;;;43.92;20.80;;;2.90;99.90;;;;;;5119674;28;20020;-68
2020/12/06 07:42:42;;;;;;;38.13;17.88;;;2.90;99.90;;;;;;5120106;28;20102;-69
2020/12/06 07:45:09;;;;;;;41.33;17.00;;;2.90;99.90;;;;;;5119435;28;20020;-70
2020/12/06 07:47:37;;;;;;;49.45;20.08;;;3.00;99.90;;;;;;5119661;28;20030;-69
2020/12/06 07:50:06;;;;;;;40.05;17.52;;;3.00;99.90;;;;;;5119234;28;20028;-70
2020/12/06 07:52:41;;;;;;;47.13;18.77;;;3.00;99.90;;;;;;5119378;28;20450;-69
2020/12/06 07:55:09;;;;;;;41.45;19.30;;;3.00;99.90;;;;;;5084843;28;20429;-69
2020/12/06 07:57:47;;;;;;;41.45;19.98;;;3.00;99.90;;;;;;5119700;28;20069;-70
2020/12/06 08:00:36;;;;;;;40.75;16.85;;;3.00;99.90;;;;;;5119624;28;20426;-69
2020/12/06 08:03:06;;;;;;;38.40;17.88;;;3.00;99.90;;;;;;5119537;28;20024;-69
2020/12/06 08:05:40;;;;;;;38.88;18.42;;;3.00;99.90;;;;;;5118955;28;20107;-69
2020/12/06 08:08:21;;;;;;;42.58;19.23;;;3.00;99.90;;;;;;5118794;28;20114;-72
2020/12/06 08:10:57;;;;;;;40.25;19.83;;;3.10;99.90;;;;;;5119230;28;20031;-70
2020/12/06 08:13:25;;;;;;;43.83;20.10;;;3.10;99.90;;;;;;5119401;28;20020;-68
2020/12/06 08:15:52;;;;;;;35.28;16.55;;;3.10;99.90;;;;;;5118785;28;20073;-68
2020/12/06 08:18:19;;;;;;;42.97;19.05;;;3.10;99.90;;;;;;5118629;28;20023;-70
2020/12/06 08:20:57;;;;;;;40.58;19.38;;;3.10;99.90;;;;;;5119205;28;20024;-68
2020/12/06 08:23:39;;;;;;;39.25;19.45;;;3.10;99.90;;;;;;5119200;28;20030;-69
2020/12/06 08:26:09;;;;;;;41.28;19.35;;;3.20;99.90;;;;;;5118525;28;20420;-67
2020/12/06 08:28:37;;;;;;;39.78;18.75;;;3.20;99.90;;;;;;5118416;28;20055;-66
2020/12/06 08:31:24;;;;;;;39.72;18.38;;;3.20;99.90;;;;;;5118457;28;20024;-68
2020/12/06 08:33:52;;;;;;;36.70;18.60;;;3.20;99.90;;;;;;5118369;28;20081;-69
2020/12/06 08:36:26;;;;;;;42.38;19.85;;;3.30;99.90;;;;;;5118212;28;20394;-69
2020/12/06 08:38:54;;;;;;;37.50;18.60;;;3.30;99.90;;;;;;5118596;28;20028;-69
2020/12/06 08:41:26;;;;;;;41.97;20.08;;;3.30;99.90;;;;;;5118274;28;20024;-69
2020/12/06 08:44:05;;;;;;;43.53;21.67;;;3.30;99.90;;;;;;5100090;28;20024;-68
2020/12/06 08:46:33;;;;;;;43.70;19.88;;;3.40;99.90;;;;;;5118181;28;20103;-68
2020/12/06 08:49:02;;;;;;;41.00;21.40;;;3.40;99.90;;;;;;5100792;28;20052;-68
2020/12/06 08:51:39;;;;;;;41.28;19.13;;;3.40;99.90;;;;;;5117946;28;20024;-68
2020/12/06 08:54:08;;;;;;;36.10;18.77;;;3.50;99.90;;;;;;5118003;28;20357;-68
2020/12/06 08:56:40;;;;;;;41.85;20.52;;;3.50;99.90;;;;;;5117980;28;20024;-68
2020/12/06 08:59:16;;;;;;;42.38;20.55;;;3.50;99.90;;;;;;5117900;28;20015;-68
2020/12/06 09:01:55;;;;;;;40.80;21.17;;;3.50;99.90;;;;;;5117902;28;20024;-68
2020/12/06 09:04:24;;;;;;;40.72;20.15;;;3.50;99.90;;;;;;5118405;28;20289;-68
2020/12/06 09:06:53;;;;;;;37.97;19.05;;;3.50;99.90;;;;;;5117772;28;20323;-68
2020/12/06 09:09:22;;;;;;;41.50;18.85;;;3.60;99.90;;;;;;5117520;28;20334;-68
2020/12/06 09:11:53;;;;;;;39.03;19.63;;;3.50;99.90;;;;;;5117655;28;20107;-68
2020/12/06 09:14:20;;;;;;;40.72;21.10;;;3.60;99.90;;;;;;5118172;28;20048;-67
2020/12/06 09:16:48;;;;;;;37.13;18.58;;;3.50;99.90;;;;;;5118178;28;20353;-69
2020/12/06 09:19:16;;;;;;;45.53;20.40;;;3.50;99.90;;;;;;5099463;28;20023;-69
2020/12/06 09:21:44;;;;;;;41.45;20.73;;;3.50;99.90;;;;;;5117521;28;20323;-68
2020/12/06 09:24:12;;;;;;;44.47;21.70;;;3.50;99.90;;;;;;5118067;28;20414;-68
2020/12/06 09:26:40;;;;;;;44.25;20.85;;;3.50;99.90;;;;;;5117488;28;20107;-68
2020/12/06 09:29:08;;;;;;;39.40;19.58;;;3.60;99.90;;;;;;5117456;28;20016;-68
2020/12/06 09:31:36;;;;;;;38.15;19.38;;;3.60;99.90;;;;;;5116937;28;20047;-68
2020/12/06 09:34:04;;;;;;;40.35;20.13;;;3.60;99.90;;;;;;5117885;28;20027;-68
2020/12/06 09:36:32;;;;;;;38.97;19.20;;;3.60;99.90;;;;;;5117453;28;20020;-68
2020/12/06 09:38:59;;;;;;;37.28;19.17;;;3.60;99.90;;;;;;5117831;28;20020;-68
2020/12/06 09:41:27;;;;;;;38.75;20.10;;;3.60;99.90;;;;;;5117765;28;20016;-69
2020/12/06 09:43:55;;;;;;;44.85;21.00;;;3.60;99.90;;;;;;5117188;28;20023;-68
2020/12/06 09:46:23;;;;;;;41.10;20.73;;;3.60;99.90;;;;;;5117186;28;20070;-68
2020/12/06 09:48:51;;;;;;;43.25;21.25;;;3.60;99.90;;;;;;5117438;28;20408;-68
2020/12/06 09:51:19;;;;;;;44.50;22.33;;;3.60;99.90;;;;;;5116985;28;20047;-68
2020/12/06 09:53:49;;;;;;;41.60;20.05;;;3.60;99.90;;;;;;5117096;28;20019;-68
2020/12/06 09:56:17;;;;;;;38.15;17.85;;;3.60;99.90;;;;;;5117035;28;20427;-68
2020/12/06 09:58:45;;;;;;;39.67;18.55;;;3.60;99.90;;;;;;5117560;28;20024;-68
2020/12/06 10:01:13;;;;;;;45.85;23.40;;;3.60;99.90;;;;;;5116989;28;20019;-68
2020/12/06 10:03:41;;;;;;;42.70;21.20;;;3.60;99.90;;;;;;5117530;28;20031;-68
2020/12/06 10:06:08;;;;;;;37.22;18.48;;;3.60;99.90;;;;;;5116905;28;20077;-68
2020/12/06 10:08:36;;;;;;;37.53;19.50;;;3.60;99.90;;;;;;5095273;28;20454;-68
2020/12/06 10:11:05;;;;;;;40.65;20.70;;;3.60;99.90;;;;;;5097250;28;20051;-68
2020/12/06 10:13:33;;;;;;;39.17;19.02;;;3.60;99.90;;;;;;5096676;28;20012;-68
2020/12/06 10:16:01;;;;;;;45.63;21.10;;;3.60;99.90;;;;;;5096955;28;20078;-68
2020/12/06 10:18:29;;;;;;;46.30;22.60;;;3.60;99.90;;;;;;5097069;28;20039;-68
2020/12/06 10:20:57;;;;;;;39.13;19.95;;;3.60;99.90;;;;;;5096359;28;20103;-68
2020/12/06 10:23:24;;;;;;;41.53;19.48;;;3.60;99.90;;;;;;5096927;28;20028;-68
2020/12/06 10:25:52;;;;;;;46.90;22.10;;;3.60;99.90;;;;;;5096394;28;20077;-68
2020/12/06 10:28:19;;;;;;;44.60;20.70;;;3.60;99.90;;;;;;5096441;28;20060;-68
2020/12/06 10:30:47;;;;;;;43.13;20.75;;;3.70;99.90;;;;;;5096290;28;20020;-68
2020/12/06 10:33:14;;;;;;;41.38;20.77;;;3.70;99.90;;;;;;5096318;28;20031;-68
2020/12/06 10:35:44;;;;;;;43.95;20.80;;;3.70;99.90;;;;;;5095191;28;20024;-68
2020/12/06 10:38:15;;;;;;;40.50;19.83;;;3.70;99.90;;;;;;5096219;28;20016;-68
2020/12/06 10:40:43;;;;;;;37.63;19.98;;;3.70;99.90;;;;;;5096295;28;20024;-68
2020/12/06 10:43:10;;;;;;;42.30;20.20;;;3.70;99.90;;;;;;5097108;28;20039;-68
2020/12/06 10:45:38;;;;;;;41.78;20.75;;;3.70;99.90;;;;;;5099083;28;20020;-68
2020/12/06 10:48:05;;;;;;;46.10;20.08;;;3.70;99.90;;;;;;5099446;28;20095;-68
2020/12/06 10:50:34;;;;;;;42.88;19.98;;;3.80;99.90;;;;;;5100733;28;20020;-68
2020/12/06 10:53:02;;;;;;;39.45;20.42;;;3.80;99.90;;;;;;5100233;28;20024;-68
2020/12/06 10:55:30;;;;;;;44.90;20.38;;;3.80;99.90;;;;;;5098888;28;20032;-68
2020/12/06 10:57:58;;;;;;;44.65;22.13;;;3.80;99.90;;;;;;5099950;28;20035;-68
2020/12/06 11:00:26;;;;;;;47.72;21.27;;;3.90;99.90;;;;;;5100432;28;20024;-68
2020/12/06 11:02:54;;;;;;;41.53;21.58;;;3.90;99.90;;;;;;5100406;28;20086;-68
2020/12/06 11:05:21;;;;;;;40.28;19.30;;;3.90;99.90;;;;;;5099826;28;20363;-68
2020/12/06 11:07:48;;;;;;;44.50;21.90;;;3.90;99.90;;;;;;5107849;28;20075;-68
2020/12/06 11:10:17;;;;;;;40.08;19.55;;;3.90;99.90;;;;;;5101968;28;20113;-68
2020/12/06 11:12:45;;;;;;;40.10;19.88;;;4.00;99.90;;;;;;5101837;28;20414;-68
2020/12/06 11:15:12;;;;;;;40.42;19.88;;;4.00;99.90;;;;;;5120023;28;20363;-68
2020/12/06 11:17:41;;;;;;;41.38;19.65;;;4.00;99.90;;;;;;5101752;28;20030;-68
2020/12/06 11:20:08;;;;;;;42.28;19.52;;;4.00;99.90;;;;;;5119913;28;20020;-68
2020/12/06 11:22:36;;;;;;;43.08;20.35;;;4.00;99.90;;;;;;5119909;28;20023;-68
2020/12/06 11:25:05;;;;;;;41.72;20.02;;;4.00;99.90;;;;;;5120431;28;20053;-68
2020/12/06 11:27:32;;;;;;;41.40;19.08;;;4.00;99.90;;;;;;5119800;28;20028;-68
2020/12/06 11:30:00;;;;;;;42.90;19.45;;;4.00;99.90;;;;;;5119574;28;20323;-68
2020/12/06 11:32:27;;;;;;;42.58;19.48;;;4.00;99.90;;;;;;5119807;28;20019;-68
2020/12/06 11:34:55;;;;;;;46.90;19.98;;;4.00;99.90;;;;;;5119680;28;20033;-68
2020/12/06 11:37:24;;;;;;;41.55;19.70;;;4.00;99.90;;;;;;5120276;28;20396;-69
2020/12/06 11:39:52;;;;;;;39.85;19.95;;;4.10;99.90;;;;;;5119534;28;20024;-67
2020/12/06 11:42:20;;;;;;;42.15;20.20;;;4.10;99.90;;;;;;5120107;28;20032;-67
2020/12/06 11:44:48;;;;;;;42.28;21.00;;;4.10;99.90;;;;;;5102057;28;20077;-67
2020/12/06 11:47:22;;;;;;;35.13;19.48;;;4.10;99.90;;;;;;5119972;28;20315;-67
2020/12/06 11:49:50;;;;;;;45.83;19.95;;;4.20;99.90;;;;;;5119309;28;20100;-67
2020/12/06 11:52:18;;;;;;;40.25;19.02;;;4.10;99.90;;;;;;5101813;28;20461;-67
2020/12/06 11:54:46;;;;;;;38.85;20.17;;;4.10;99.90;;;;;;5100779;28;20027;-66
2020/12/06 11:57:14;;;;;;;38.65;18.63;;;4.10;99.90;;;;;;5119786;28;20015;-67
2020/12/06 11:59:42;;;;;;;40.38;18.85;;;4.10;99.90;;;;;;5119185;28;20024;-67
2020/12/06 12:02:10;;;;;;;41.55;19.98;;;4.10;99.90;;;;;;5119861;28;20054;-67
2020/12/06 12:04:39;;;;;;;39.03;19.77;;;4.10;99.90;;;;;;5119003;28;20435;-67
2020/12/06 12:07:07;;;;;;;36.20;18.67;;;4.10;99.90;;;;;;5119031;28;20027;-68
2020/12/06 12:09:34;;;;;;;42.22;19.75;;;4.10;99.90;;;;;;5101492;28;20446;-68
2020/12/06 12:12:02;;;;;;;41.88;20.42;;;4.10;99.90;;;;;;5119350;28;20026;-67
2020/12/06 12:14:30;;;;;;;43.72;20.40;;;4.00;99.90;;;;;;5100765;28;20027;-67
2020/12/06 12:16:58;;;;;;;49.65;21.23;;;4.10;99.90;;;;;;5118916;28;20051;-68
2020/12/06 12:19:26;;;;;;;43.83;20.05;;;4.10;99.90;;;;;;5119023;28;20020;-67
2020/12/06 12:21:54;;;;;;;45.00;20.88;;;4.10;99.90;;;;;;5119337;28;20023;-66
2020/12/06 12:24:22;;;;;;;43.55;20.70;;;4.10;99.90;;;;;;5119144;28;20012;-68
2020/12/06 12:26:49;;;;;;;46.95;21.45;;;4.10;99.90;;;;;;5119203;28;20450;-66
2020/12/06 12:29:17;;;;;;;47.33;22.60;;;4.10;99.90;;;;;;5118529;28;20016;-67
2020/12/06 12:31:45;;;;;;;48.85;22.83;;;4.10;99.90;;;;;;5119254;28;20098;-67
2020/12/06 12:34:13;;;;;;;46.00;21.80;;;4.10;99.90;;;;;;5118988;28;20303;-67
2020/12/06 12:36:42;;;;;;;42.88;21.75;;;4.10;99.90;;;;;;5118701;28;20027;-65
2020/12/06 12:39:10;;;;;;;47.67;22.27;;;4.10;99.90;;;;;;5118938;28;20031;-67
2020/12/06 12:41:38;;;;;;;48.50;20.80;;;4.10;99.90;;;;;;5118464;28;20030;-67
2020/12/06 12:44:07;;;;;;;48.70;21.98;;;4.10;99.90;;;;;;5118845;28;20415;-67
2020/12/06 12:46:35;;;;;;;43.55;21.88;;;4.10;99.90;;;;;;5100156;28;20028;-67